Time;durP1;ratioP1;P1;durP2;ratioP2;P2;SDS_P1;SDS_P2;PMS_P1;PMS_P2;Temp;Humidity;BMP_temperature;BMP_pressure;BME280_temperature;BME280_humidity;BME280_pressure;Samples;Min_cycle;Max_cycle;Signal;HPM_P1;HPM_P2
2023/03/20 00:01:28;;;;;;;;;;;;;;;3.36;61.08;97202.07;108462;1251;103817;-75
2023/03/20 00:03:57;;;;;;;;;;;;;;;3.34;61.29;97199.80;108895;1251;101108;-75
2023/03/20 00:06:27;;;;;;;;;;;;;;;3.34;61.41;97199.27;108906;1251;100132;-75
2023/03/20 00:08:56;;;;;;;;;;;;;;;3.34;61.40;97198.94;108833;1251;95633;-75
2023/03/20 00:11:27;;;;;;;;;;;;;;;3.33;61.33;97200.04;108867;1251;95803;-75
2023/03/20 00:14:06;;;;;;;;;;;;;;;3.33;61.37;97199.41;108789;1251;102626;-75
2023/03/20 00:16:39;;;;;;;;;;;;;;;3.33;61.36;97199.91;108939;1251;101028;-75
2023/03/20 00:19:07;;;;;;;;;;;;;;;3.35;61.49;97200.40;108848;1251;99844;-75
2023/03/20 00:21:35;;;;;;;;;;;;;;;3.34;61.40;97201.23;108911;1251;95574;-75
2023/03/20 00:24:03;;;;;;;;;;;;;;;3.35;61.56;97203.05;108886;1251;95615;-75
2023/03/20 00:26:33;;;;;;;;;;;;;;;3.37;61.72;97203.77;108907;1251;104513;-75
2023/03/20 00:29:02;;;;;;;;;;;;;;;3.38;61.76;97205.23;108756;1251;101295;-75
2023/03/20 00:31:35;;;;;;;;;;;;;;;3.39;61.86;97201.37;108884;1251;99976;-75
2023/03/20 00:34:05;;;;;;;;;;;;;;;3.39;61.91;97202.61;108817;1251;95563;-75
2023/03/20 00:36:33;;;;;;;;;;;;;;;3.38;61.92;97199.94;108853;1251;95724;-75
2023/03/20 00:39:01;;;;;;;;;;;;;;;3.36;62.07;97202.27;108939;1251;103610;-75
2023/03/20 00:41:36;;;;;;;;;;;;;;;3.36;62.09;97200.34;108892;1251;101245;-75
2023/03/20 00:44:03;;;;;;;;;;;;;;;3.37;62.22;97202.37;108915;1251;100362;-75
2023/03/20 00:46:36;;;;;;;;;;;;;;;3.36;62.32;97201.38;108672;1251;95785;-75
2023/03/20 00:49:05;;;;;;;;;;;;;;;3.35;62.31;97200.94;108887;1251;95756;-75
2023/03/20 00:51:33;;;;;;;;;;;;;;;3.36;62.38;97207.07;108920;1250;103083;-75
2023/03/20 00:54:01;;;;;;;;;;;;;;;3.37;62.70;97206.43;108909;1251;101459;-75
2023/03/20 00:56:36;;;;;;;;;;;;;;;3.37;62.54;97206.27;108924;1251;99581;-75
2023/03/20 00:59:05;;;;;;;;;;;;;;;3.36;62.53;97205.30;108906;1251;95557;-75
2023/03/20 01:01:33;;;;;;;;;;;;;;;3.33;62.57;97202.11;108863;1251;95619;-75
2023/03/20 01:04:01;;;;;;;;;;;;;;;3.31;62.73;97201.55;108911;1250;103582;-75
2023/03/20 01:06:30;;;;;;;;;;;;;;;3.30;62.63;97200.45;108990;1251;101236;-75
2023/03/20 01:08:58;;;;;;;;;;;;;;;3.26;62.82;97197.79;108846;1251;99978;-75
2023/03/20 01:11:26;;;;;;;;;;;;;;;3.21;62.79;97193.20;108732;1252;95843;-75
2023/03/20 01:13:54;;;;;;;;;;;;;;;3.17;62.91;97190.56;108925;1251;95682;-76
2023/03/20 01:16:24;;;;;;;;;;;;;;;3.15;63.03;97190.30;108920;1251;103713;-75
2023/03/20 01:18:53;;;;;;;;;;;;;;;3.12;63.00;97188.65;108889;1251;100053;-75
2023/03/20 01:21:21;;;;;;;;;;;;;;;3.12;63.19;97190.86;108875;1251;99245;-75
2023/03/20 01:23:50;;;;;;;;;;;;;;;3.13;63.23;97193.64;108831;1252;95957;-75
2023/03/20 01:26:21;;;;;;;;;;;;;;;3.12;63.23;97192.96;108919;1251;95945;-75
2023/03/20 01:28:50;;;;;;;;;;;;;;;3.10;63.27;97189.36;108929;1251;102156;-75
2023/03/20 01:31:19;;;;;;;;;;;;;;;3.01;63.49;97190.98;108896;1251;100529;-75
2023/03/20 01:33:46;;;;;;;;;;;;;;;2.96;63.44;97188.68;108734;1251;99502;-75
2023/03/20 01:36:16;;;;;;;;;;;;;;;2.96;63.58;97193.02;108901;1251;95555;-75
2023/03/20 01:38:44;;;;;;;;;;;;;;;2.94;63.61;97192.17;108835;1251;95630;-75
2023/03/20 01:41:15;;;;;;;;;;;;;;;2.90;63.60;97194.72;108947;1250;103643;-75
2023/03/20 01:43:43;;;;;;;;;;;;;;;2.91;63.59;97197.47;108993;1251;101374;-75
2023/03/20 01:46:11;;;;;;;;;;;;;;;2.90;63.60;97195.94;108907;1251;100222;-75
2023/03/20 01:48:52;;;;;;;;;;;;;;;2.85;63.62;97196.19;108931;1251;96967;-75
2023/03/20 01:51:31;;;;;;;;;;;;;;;2.80;63.60;97193.39;108919;1251;95571;-75
2023/03/20 01:54:07;;;;;;;;;;;;;;;2.73;63.51;97191.61;108909;1250;103600;-75
2023/03/20 01:56:38;;;;;;;;;;;;;;;2.68;63.57;97192.20;108978;1251;100559;-75
2023/03/20 01:59:10;;;;;;;;;;;;;;;2.66;63.73;97190.66;108864;1251;99804;-75
2023/03/20 02:01:39;;;;;;;;;;;;;;;2.62;63.85;97195.17;108911;1251;95578;-75
2023/03/20 02:04:07;;;;;;;;;;;;;;;2.58;63.83;97200.40;108894;1251;95583;-75
2023/03/20 02:06:37;;;;;;;;;;;;;;;2.55;63.82;97202.26;108897;1253;110946;-75
2023/03/20 02:09:05;;;;;;;;;;;;;;;2.54;63.93;97201.99;108940;1251;101174;-75
2023/03/20 02:11:33;;;;;;;;;;;;;;;2.52;64.16;97199.61;108870;1251;100122;-75
2023/03/20 02:14:01;;;;;;;;;;;;;;;2.50;64.21;97197.52;108731;1251;95597;-75
2023/03/20 02:16:29;;;;;;;;;;;;;;;2.47;64.13;97202.09;108721;1251;95711;-75
2023/03/20 02:18:58;;;;;;;;;;;;;;;2.39;64.04;97203.09;108893;1251;103752;-75
2023/03/20 02:21:55;;;;;;;;;;;;;;;2.34;64.43;97202.27;108712;1251;101519;-76
2023/03/20 02:24:29;;;;;;;;;;;;;;;2.32;64.52;97207.27;108864;1251;99572;-75
2023/03/20 02:27:03;;;;;;;;;;;;;;;2.30;64.74;97206.97;108882;1251;96118;-75
2023/03/20 02:29:33;;;;;;;;;;;;;;;2.27;64.69;97207.14;108860;1251;95563;-75
2023/03/20 02:32:07;;;;;;;;;;;;;;;2.23;64.69;97204.13;108939;1254;103560;-75
2023/03/20 02:34:53;;;;;;;;;;;;;;;2.21;64.81;97207.76;108938;1253;101541;-75
2023/03/20 02:37:35;;;;;;;;;;;;;;;2.22;64.99;97204.80;108876;1251;99620;-75
2023/03/20 02:40:17;;;;;;;;;;;;;;;2.22;64.99;97205.19;108674;1251;95645;-75
2023/03/20 02:42:45;;;;;;;;;;;;;;;2.22;65.07;97207.29;108919;1251;95569;-75
2023/03/20 02:45:13;;;;;;;;;;;;;;;2.23;65.05;97203.33;108878;1254;103645;-75
2023/03/20 02:47:46;;;;;;;;;;;;;;;2.24;65.16;97204.14;108925;1251;101749;-75
2023/03/20 02:50:24;;;;;;;;;;;;;;;2.22;65.14;97202.87;108928;1251;100157;-76
2023/03/20 02:52:55;;;;;;;;;;;;;;;2.21;65.40;97201.27;108873;1251;95591;-75
2023/03/20 02:55:23;;;;;;;;;;;;;;;2.19;65.25;97203.02;108905;1250;95552;-75
2023/03/20 02:57:55;;;;;;;;;;;;;;;2.16;65.34;97204.93;108897;1251;103211;-75
2023/03/20 03:00:23;;;;;;;;;;;;;;;2.13;65.20;97204.89;108903;1251;101496;-75
2023/03/20 03:02:53;;;;;;;;;;;;;;;2.07;65.24;97201.80;108622;1251;107312;-75
2023/03/20 03:05:27;;;;;;;;;;;;;;;2.02;65.39;97202.37;108890;1251;95637;-75
2023/03/20 03:07:58;;;;;;;;;;;;;;;2.00;65.38;97205.09;108923;1251;95701;-75
2023/03/20 03:10:32;;;;;;;;;;;;;;;1.94;65.52;97202.54;108912;1251;103712;-75
2023/03/20 03:13:02;;;;;;;;;;;;;;;1.86;65.73;97201.95;108905;1251;101168;-75
2023/03/20 03:15:39;;;;;;;;;;;;;;;1.87;65.90;97202.92;108678;1251;100107;-75
2023/03/20 03:18:11;;;;;;;;;;;;;;;1.92;65.92;97201.02;108909;1251;95544;-75
2023/03/20 03:20:40;;;;;;;;;;;;;;;1.95;65.88;97198.91;108964;1251;95926;-75
2023/03/20 03:23:08;;;;;;;;;;;;;;;1.95;65.95;97199.41;108975;1251;103489;-75
2023/03/20 03:25:38;;;;;;;;;;;;;;;1.96;66.01;97197.48;108896;1251;101063;-75
2023/03/20 03:28:24;;;;;;;;;;;;;;;1.98;65.99;97197.30;108831;1252;100047;-75
2023/03/20 03:30:53;;;;;;;;;;;;;;;1.99;66.12;97198.04;108856;1251;95613;-75
2023/03/20 03:33:24;;;;;;;;;;;;;;;1.98;66.00;97200.68;108980;1251;95714;-75
2023/03/20 03:35:56;;;;;;;;;;;;;;;1.92;66.01;97194.90;108813;1251;111994;-75
2023/03/20 03:38:39;;;;;;;;;;;;;;;1.89;66.05;97196.88;108886;1251;101311;-75
2023/03/20 03:41:07;;;;;;;;;;;;;;;1.90;66.16;97200.61;108853;1251;97792;-75
2023/03/20 03:43:40;;;;;;;;;;;;;;;1.92;66.08;97200.05;108922;1251;95846;-75
2023/03/20 03:46:19;;;;;;;;;;;;;;;1.93;66.11;97202.08;108899;1251;96445;-74
2023/03/20 03:48:50;;;;;;;;;;;;;;;1.94;66.13;97199.84;108893;1254;103560;-75
2023/03/20 03:51:21;;;;;;;;;;;;;;;1.93;66.18;97194.98;108909;1251;100080;-74
2023/03/20 03:53:55;;;;;;;;;;;;;;;1.92;66.16;97190.73;108636;1251;100164;-75
2023/03/20 03:56:25;;;;;;;;;;;;;;;1.90;66.17;97193.26;108860;1251;95634;-75
2023/03/20 03:58:55;;;;;;;;;;;;;;;1.86;66.29;97187.73;108864;1251;95601;-75
2023/03/20 04:01:24;;;;;;;;;;;;;;;1.83;66.44;97191.45;108987;1251;103355;-75
2023/03/20 04:03:54;;;;;;;;;;;;;;;1.80;66.46;97189.09;108930;1251;101703;-75
2023/03/20 04:06:22;;;;;;;;;;;;;;;1.75;66.33;97186.98;108877;1251;100041;-75
2023/03/20 04:08:50;;;;;;;;;;;;;;;1.69;66.57;97193.09;108590;1253;95682;-75
2023/03/20 04:11:23;;;;;;;;;;;;;;;1.62;66.65;97196.68;108910;1251;95738;-75
2023/03/20 04:13:52;;;;;;;;;;;;;;;1.59;66.70;97196.94;108932;1251;102241;-75
2023/03/20 04:16:21;;;;;;;;;;;;;;;1.59;66.88;97192.31;108879;1251;101661;-75
2023/03/20 04:18:54;;;;;;;;;;;;;;;1.60;66.89;97194.08;108944;1251;98617;-75
2023/03/20 04:21:23;;;;;;;;;;;;;;;1.64;66.86;97194.53;108866;1251;95544;-75
2023/03/20 04:23:51;;;;;;;;;;;;;;;1.66;66.93;97196.08;108920;1251;95722;-75
2023/03/20 04:26:20;;;;;;;;;;;;;;;1.62;66.82;97192.60;108761;1251;104659;-74
2023/03/20 04:28:48;;;;;;;;;;;;;;;1.62;66.86;97190.66;108912;1251;101263;-76
2023/03/20 04:31:16;;;;;;;;;;;;;;;1.63;66.74;97191.77;108867;1251;99793;-75
2023/03/20 04:33:44;;;;;;;;;;;;;;;1.60;66.71;97196.15;108886;1251;95521;-75
2023/03/20 04:36:12;;;;;;;;;;;;;;;1.58;66.90;97196.16;108946;1251;95609;-74
2023/03/20 04:38:40;;;;;;;;;;;;;;;1.57;66.85;97196.34;108737;1251;102910;-75
2023/03/20 04:41:08;;;;;;;;;;;;;;;1.57;66.96;97200.42;108722;1251;110383;-75
2023/03/20 04:43:36;;;;;;;;;;;;;;;1.57;66.90;97202.64;108878;1251;100176;-74
2023/03/20 04:46:04;;;;;;;;;;;;;;;1.58;66.90;97204.14;108884;1251;95531;-74
2023/03/20 04:48:32;;;;;;;;;;;;;;;1.59;66.98;97201.25;108978;1251;95877;-74
2023/03/20 04:51:00;;;;;;;;;;;;;;;1.60;66.82;97196.34;108918;1251;103606;-75
2023/03/20 04:53:28;;;;;;;;;;;;;;;1.61;66.92;97194.31;108908;1252;101628;-75
2023/03/20 04:55:56;;;;;;;;;;;;;;;1.63;66.95;97193.23;108842;1251;99879;-75
2023/03/20 04:58:24;;;;;;;;;;;;;;;1.64;67.01;97193.80;108942;1251;95659;-75
2023/03/20 05:00:52;;;;;;;;;;;;;;;1.65;67.08;97196.37;108758;1251;96629;-75
2023/03/20 05:03:20;;;;;;;;;;;;;;;1.66;67.03;97198.40;108949;1251;103610;-74
2023/03/20 05:05:48;;;;;;;;;;;;;;;1.67;67.23;97200.94;108899;1251;99192;-76
2023/03/20 05:08:16;;;;;;;;;;;;;;;1.68;67.13;97204.06;108884;1251;98867;-75
2023/03/20 05:10:44;;;;;;;;;;;;;;;1.69;67.31;97207.13;108974;1251;95496;-75
2023/03/20 05:13:12;;;;;;;;;;;;;;;1.69;67.22;97208.14;108752;1252;95660;-75
2023/03/20 05:15:40;;;;;;;;;;;;;;;1.71;67.31;97207.75;108902;1251;103721;-75
2023/03/20 05:18:08;;;;;;;;;;;;;;;1.70;67.44;97207.19;108945;1251;101461;-75
2023/03/20 05:20:36;;;;;;;;;;;;;;;1.68;67.48;97202.61;108876;1251;99970;-75
2023/03/20 05:23:04;;;;;;;;;;;;;;;1.69;67.39;97197.87;108860;1251;95755;-75
2023/03/20 05:25:32;;;;;;;;;;;;;;;1.72;67.44;97195.98;108933;1251;95762;-74
2023/03/20 05:28:00;;;;;;;;;;;;;;;1.76;67.44;97202.30;108911;1251;103520;-75
2023/03/20 05:30:28;;;;;;;;;;;;;;;1.79;67.72;97203.34;108944;1251;101897;-75
2023/03/20 05:32:56;;;;;;;;;;;;;;;1.82;67.80;97205.66;108812;1251;99916;-75
2023/03/20 05:35:24;;;;;;;;;;;;;;;1.85;67.72;97203.67;108700;1257;95621;-75
2023/03/20 05:37:52;;;;;;;;;;;;;;;1.88;67.71;97200.56;108919;1253;95794;-74
2023/03/20 05:40:23;;;;;;;;;;;;;;;1.93;67.73;97203.88;108949;1255;103446;-75
2023/03/20 05:42:51;;;;;;;;;;;;;;;2.00;67.73;97209.38;108909;1251;101281;-75
2023/03/20 05:45:19;;;;;;;;;;;;;;;2.06;67.74;97213.48;108921;1251;99563;-76
2023/03/20 05:47:47;;;;;;;;;;;;;;;2.12;67.72;97212.10;108659;1252;95586;-75
2023/03/20 05:50:15;;;;;;;;;;;;;;;2.18;67.67;97210.34;108667;1258;95734;-75
2023/03/20 05:52:46;;;;;;;;;;;;;;;2.24;67.57;97211.00;108856;1254;103862;-74
2023/03/20 05:55:15;;;;;;;;;;;;;;;2.32;67.48;97207.70;108925;1253;101405;-75
2023/03/20 05:57:43;;;;;;;;;;;;;;;2.38;67.47;97210.89;108905;1253;99911;-75
2023/03/20 06:00:11;;;;;;;;;;;;;;;2.45;67.43;97207.15;108899;1254;95536;-75
2023/03/20 06:02:39;;;;;;;;;;;;;;;2.52;67.38;97204.23;108655;1253;96754;-75
2023/03/20 06:05:07;;;;;;;;;;;;;;;2.59;67.27;97207.05;108808;1256;103020;-75
2023/03/20 06:07:35;;;;;;;;;;;;;;;2.66;67.19;97208.09;108833;1253;100567;-75
2023/03/20 06:10:03;;;;;;;;;;;;;;;2.72;67.25;97211.80;108825;1253;99725;-75
2023/03/20 06:12:31;;;;;;;;;;;;;;;2.79;67.28;97215.85;108838;1254;95526;-75
2023/03/20 06:14:59;;;;;;;;;;;;;;;2.86;67.41;97213.08;108889;1254;95623;-76
2023/03/20 06:17:27;;;;;;;;;;;;;;;2.94;67.49;97209.97;108880;1256;103470;-75
2023/03/20 06:19:55;;;;;;;;;;;;;;;3.01;67.35;97211.67;108845;1253;100414;-75
2023/03/20 06:22:23;;;;;;;;;;;;;;;3.09;67.24;97215.16;108822;1253;108514;-75
2023/03/20 06:24:51;;;;;;;;;;;;;;;3.16;67.26;97215.98;108633;1253;95915;-75
2023/03/20 06:27:19;;;;;;;;;;;;;;;3.25;67.32;97217.16;108882;1254;97012;-75
2023/03/20 06:29:47;;;;;;;;;;;;;;;3.32;67.17;97216.23;108870;1253;103675;-74
2023/03/20 06:32:16;;;;;;;;;;;;;;;3.39;66.91;97218.86;108869;1253;101068;-74
2023/03/20 06:34:44;;;;;;;;;;;;;;;3.47;66.87;97221.85;108785;1254;98404;-75
2023/03/20 06:37:12;;;;;;;;;;;;;;;3.55;66.84;97224.78;108896;1254;95561;-74
2023/03/20 06:39:40;;;;;;;;;;;;;;;3.64;66.84;97220.54;108863;1254;95570;-75
2023/03/20 06:42:08;;;;;;;;;;;;;;;3.72;66.72;97220.59;108918;1254;103247;-75
2023/03/20 06:44:36;;;;;;;;;;;;;;;3.79;66.50;97221.92;108832;1254;101588;-74
2023/03/20 06:47:04;;;;;;;;;;;;;;;3.85;66.53;97230.31;108799;1253;99991;-75
2023/03/20 06:49:32;;;;;;;;;;;;;;;3.91;66.60;97235.15;108893;1251;95623;-75
2023/03/20 06:52:01;;;;;;;;;;;;;;;3.96;66.37;97234.70;108921;1251;95652;-75
2023/03/20 06:54:29;;;;;;;;;;;;;;;4.03;66.50;97232.93;108899;1251;103600;-75
2023/03/20 06:56:57;;;;;;;;;;;;;;;4.11;66.32;97233.19;108951;1251;101454;-74
2023/03/20 06:59:25;;;;;;;;;;;;;;;4.21;66.12;97231.30;108897;1251;99911;-75
2023/03/20 07:01:53;;;;;;;;;;;;;;;4.32;65.99;97229.33;108661;1251;95978;-75
2023/03/20 07:04:21;;;;;;;;;;;;;;;4.44;65.82;97229.05;108904;1251;96462;-75
2023/03/20 07:06:49;;;;;;;;;;;;;;;4.60;65.74;97227.54;108881;1251;103507;-75
2023/03/20 07:09:18;;;;;;;;;;;;;;;4.78;65.59;97220.62;108745;1251;101393;-75
2023/03/20 07:11:46;;;;;;;;;;;;;;;4.97;65.65;97218.18;108920;1251;100676;-75
2023/03/20 07:14:14;;;;;;;;;;;;;;;5.16;65.46;97223.76;108842;1251;95562;-75
2023/03/20 07:16:42;;;;;;;;;;;;;;;5.37;65.40;97221.40;108745;1251;95869;-74
2023/03/20 07:19:12;;;;;;;;;;;;;;;5.56;65.02;97222.11;108917;1251;103531;-75
2023/03/20 07:21:40;;;;;;;;;;;;;;;5.72;64.72;97220.59;108901;1250;101169;-75
2023/03/20 07:24:08;;;;;;;;;;;;;;;5.90;64.53;97219.46;108684;1251;99229;-75
2023/03/20 07:26:35;;;;;;;;;;;;;;;6.04;64.34;97221.79;108870;1251;95540;-75
2023/03/20 07:29:03;;;;;;;;;;;;;;;6.17;63.83;97222.52;108718;1252;95662;-75
2023/03/20 07:31:31;;;;;;;;;;;;;;;6.31;63.33;97219.17;108912;1251;112230;-75
2023/03/20 07:33:59;;;;;;;;;;;;;;;6.44;62.89;97218.37;108917;1251;101307;-75
2023/03/20 07:36:27;;;;;;;;;;;;;;;6.55;62.75;97213.73;108814;1251;99501;-75
2023/03/20 07:38:55;;;;;;;;;;;;;;;6.69;62.46;97208.55;108720;1251;95826;-75
2023/03/20 07:41:23;;;;;;;;;;;;;;;6.96;62.44;97205.34;108895;1251;95543;-76
2023/03/20 07:43:51;;;;;;;;;;;;;;;7.37;62.59;97203.92;108898;1251;103443;-75
2023/03/20 07:46:19;;;;;;;;;;;;;;;7.80;62.04;97204.90;108657;1252;102459;-75
2023/03/20 07:48:47;;;;;;;;;;;;;;;8.03;61.33;97204.63;108783;1251;99696;-74
2023/03/20 07:51:15;;;;;;;;;;;;;;;8.24;60.94;97206.45;108852;1251;95584;-75
2023/03/20 07:53:43;;;;;;;;;;;;;;;8.57;60.68;97207.11;108906;1251;96459;-75
2023/03/20 07:56:12;;;;;;;;;;;;;;;8.99;60.04;97203.66;108886;1251;102292;-75
2023/03/20 07:58:40;;;;;;;;;;;;;;;9.32;59.39;97202.30;108890;1251;101338;-74
2023/03/20 08:01:08;;;;;;;;;;;;;;;9.67;58.65;97203.58;108719;1251;242671;-75
2023/03/20 08:03:37;;;;;;;;;;;;;;;10.04;58.16;97206.59;108922;1251;95541;-75
2023/03/20 08:06:08;;;;;;;;;;;;;;;10.38;57.17;97205.56;108925;1251;95655;-75
2023/03/20 08:08:36;;;;;;;;;;;;;;;10.65;56.56;97198.78;108668;1251;103640;-75
2023/03/20 08:11:04;;;;;;;;;;;;;;;10.96;55.78;97193.42;108886;1251;101454;-75
2023/03/20 08:13:32;;;;;;;;;;;;;;;11.32;54.92;97188.53;108893;1251;100048;-75
2023/03/20 08:16:00;;;;;;;;;;;;;;;11.58;54.19;97189.08;108883;1251;95884;-75
2023/03/20 08:18:28;;;;;;;;;;;;;;;11.87;53.95;97191.23;108901;1251;95589;-75
2023/03/20 08:20:56;;;;;;;;;;;;;;;12.32;53.28;97191.44;108881;1251;103503;-74
2023/03/20 08:23:25;;;;;;;;;;;;;;;12.83;52.60;97188.16;108886;1251;101311;-74
2023/03/20 08:25:54;;;;;;;;;;;;;;;13.00;51.35;97182.98;108887;1251;99393;-74
2023/03/20 08:28:22;;;;;;;;;;;;;;;13.12;51.18;97180.81;108891;1251;95573;-74
2023/03/20 08:30:50;;;;;;;;;;;;;;;13.45;50.48;97177.49;108872;1251;95641;-74
2023/03/20 08:33:19;;;;;;;;;;;;;;;13.58;49.52;97176.63;108942;1251;102223;-74
2023/03/20 08:35:59;;;;;;;;;;;;;;;13.77;48.94;97173.00;108690;1251;100145;-74
2023/03/20 08:38:27;;;;;;;;;;;;;;;14.10;48.89;97167.89;108627;1251;99897;-74
2023/03/20 08:40:55;;;;;;;;;;;;;;;14.31;48.00;97168.61;108691;1253;95574;-74
2023/03/20 08:43:23;;;;;;;;;;;;;;;14.33;47.52;97172.99;108929;1251;95645;-74
2023/03/20 08:45:52;;;;;;;;;;;;;;;14.44;46.84;97172.64;108905;1251;103735;-74
2023/03/20 08:48:20;;;;;;;;;;;;;;;14.65;46.25;97168.27;108895;1251;101054;-74
2023/03/20 08:50:49;;;;;;;;;;;;;;;14.80;45.97;97167.31;108897;1251;99508;-74
2023/03/20 08:53:17;;;;;;;;;;;;;;;14.94;45.53;97164.89;108913;1251;95539;-74
2023/03/20 08:55:49;;;;;;;;;;;;;;;15.18;44.96;97162.77;108897;1251;95634;-74
2023/03/20 08:58:21;;;;;;;;;;;;;;;15.50;45.06;97162.54;108947;1251;103902;-74
2023/03/20 09:00:49;;;;;;;;;;;;;;;15.74;43.82;97160.52;108924;1251;101022;-74
2023/03/20 09:03:21;;;;;;;;;;;;;;;15.98;43.38;97163.36;108887;1251;99983;-74
2023/03/20 09:05:51;;;;;;;;;;;;;;;16.15;43.03;97162.02;108940;1251;95521;-74
2023/03/20 09:08:19;;;;;;;;;;;;;;;16.09;42.78;97162.17;108773;1251;95805;-74
2023/03/20 09:10:48;;;;;;;;;;;;;;;16.02;42.55;97163.70;108883;1251;103609;-75
2023/03/20 09:13:16;;;;;;;;;;;;;;;16.25;42.47;97165.52;108933;1251;101222;-74
2023/03/20 09:15:44;;;;;;;;;;;;;;;16.56;41.77;97162.58;108879;1251;99898;-74
2023/03/20 09:18:12;;;;;;;;;;;;;;;16.79;41.23;97164.55;108849;1251;95510;-74
2023/03/20 09:20:40;;;;;;;;;;;;;;;17.02;41.27;97160.14;108905;1251;95610;-74
2023/03/20 09:23:08;;;;;;;;;;;;;;;17.34;40.99;97160.15;108907;1251;103377;-74
2023/03/20 09:25:36;;;;;;;;;;;;;;;17.63;39.85;97152.59;108897;1251;101647;-74
2023/03/20 09:28:04;;;;;;;;;;;;;;;17.73;39.35;97148.14;108735;1251;98427;-74
2023/03/20 09:30:32;;;;;;;;;;;;;;;17.95;39.32;97149.38;108871;1251;95533;-74
2023/03/20 09:33:00;;;;;;;;;;;;;;;18.11;38.72;97147.16;108913;1251;95653;-74
2023/03/20 09:35:28;;;;;;;;;;;;;;;18.03;38.31;97149.02;108916;1251;103474;-74
2023/03/20 09:37:56;;;;;;;;;;;;;;;17.83;38.08;97150.17;108962;1250;101600;-74
2023/03/20 09:40:29;;;;;;;;;;;;;;;17.65;38.15;97147.04;108876;1251;99803;-74
2023/03/20 09:42:57;;;;;;;;;;;;;;;17.42;38.13;97149.58;108878;1251;95567;-74
2023/03/20 09:45:51;;;;;;;;;;;;;;;17.26;38.05;97149.02;108957;1251;95588;-74
2023/03/20 09:48:33;;;;;;;;;;;;;;;17.46;38.34;97149.23;108223;1259;103414;-74
2023/03/20 09:51:16;;;;;;;;;;;;;;;17.59;37.99;97147.42;108318;1259;101360;-74
2023/03/20 09:53:47;;;;;;;;;;;;;;;17.57;38.00;97142.54;108235;1259;99331;-74
2023/03/20 09:56:18;;;;;;;;;;;;;;;17.77;37.96;97142.54;108157;1259;96003;-74
2023/03/20 09:58:50;;;;;;;;;;;;;;;18.00;37.50;97143.93;108300;1258;95698;-74
2023/03/20 10:01:19;;;;;;;;;;;;;;;18.11;37.37;97140.60;108215;1259;103553;-75
2023/03/20 10:03:54;;;;;;;;;;;;;;;18.10;37.10;97139.80;108063;1259;100583;-74
2023/03/20 10:06:22;;;;;;;;;;;;;;;18.00;36.40;97137.48;108249;1259;99976;-75
2023/03/20 10:08:50;;;;;;;;;;;;;;;17.81;36.82;97134.14;108263;1259;95630;-75
2023/03/20 10:11:33;;;;;;;;;;;;;;;17.74;36.63;97129.98;108298;1259;95743;-75
2023/03/20 10:14:13;;;;;;;;;;;;;;;17.66;36.90;97127.89;108269;1259;103803;-75
2023/03/20 10:16:53;;;;;;;;;;;;;;;17.76;37.26;97126.04;108302;1259;101401;-75
2023/03/20 10:19:28;;;;;;;;;;;;;;;17.97;37.13;97126.77;108291;1259;99926;-74
2023/03/20 10:22:00;;;;;;;;;;;;;;;18.12;37.10;97121.70;108279;1259;95654;-75
2023/03/20 10:24:29;;;;;;;;;;;;;;;18.43;37.18;97116.68;108325;1259;95651;-75
2023/03/20 10:27:01;;;;;;;;;;;;;;;18.61;37.02;97115.84;108960;1251;104625;-74
2023/03/20 10:29:32;;;;;;;;;;;;;;;18.86;36.83;97118.20;108902;1251;101158;-75
2023/03/20 10:32:19;;;;;;;;;;;;;;;19.13;36.41;97115.05;108929;1251;99328;-75
2023/03/20 10:34:54;;;;;;;;;;;;;;;19.25;36.12;97109.48;108880;1251;95966;-75
2023/03/20 10:37:35;;;;;;;;;;;;;;;19.24;35.78;97109.59;108712;1251;96417;-75
2023/03/20 10:40:14;;;;;;;;;;;;;;;19.23;35.90;97110.62;109007;1251;103518;-75
2023/03/20 10:42:45;;;;;;;;;;;;;;;19.20;35.69;97107.84;108875;1250;101246;-74
2023/03/20 10:45:35;;;;;;;;;;;;;;;19.10;35.60;97108.48;108942;1251;100299;-75
2023/03/20 10:48:07;;;;;;;;;;;;;;;18.94;35.46;97109.68;108635;1251;96045;-75
2023/03/20 10:50:40;;;;;;;;;;;;;;;18.67;35.68;97112.91;108854;1251;95637;-74
2023/03/20 10:53:08;;;;;;;;;;;;;;;18.58;35.91;97112.17;108699;1256;103903;-75
2023/03/20 10:55:41;;;;;;;;;;;;;;;18.48;35.57;97112.39;108849;1251;102320;-77
2023/03/20 10:58:09;;;;;;;;;;;;;;;18.15;35.57;97105.55;108893;1251;99703;-79
2023/03/20 11:00:38;;;;;;;;;;;;;;;18.02;36.11;97108.34;108898;1251;95635;-78
2023/03/20 11:03:07;;;;;;;;;;;;;;;18.10;36.28;97107.61;108924;1251;96511;-79
2023/03/20 11:05:37;;;;;;;;;;;;;;;18.14;36.50;97105.93;108743;1251;103553;-79
2023/03/20 11:08:09;;;;;;;;;;;;;;;18.16;36.13;97100.26;108914;1251;101051;-78
2023/03/20 11:10:38;;;;;;;;;;;;;;;18.22;36.44;97098.27;108917;1251;99946;-78
2023/03/20 11:13:15;;;;;;;;;;;;;;;18.30;36.05;97096.27;108943;1251;95987;-78
2023/03/20 11:15:43;;;;;;;;;;;;;;;18.24;35.81;97093.62;108690;1251;96049;-78
2023/03/20 11:18:14;;;;;;;;;;;;;;;18.11;36.02;97095.76;108695;1252;103241;-78
2023/03/20 11:20:51;;;;;;;;;;;;;;;17.98;36.48;97096.09;108776;1253;100088;-77
2023/03/20 11:23:24;;;;;;;;;;;;;;;17.72;35.82;97096.10;108778;1253;99883;-78
2023/03/20 11:25:56;;;;;;;;;;;;;;;17.30;36.41;97091.59;108783;1253;95621;-78
2023/03/20 11:28:35;;;;;;;;;;;;;;;17.09;36.48;97090.83;108577;1254;95710;-78
2023/03/20 11:31:03;;;;;;;;;;;;;;;16.72;36.79;97087.71;108808;1253;102531;-78
2023/03/20 11:33:32;;;;;;;;;;;;;;;16.49;37.33;97092.20;108790;1253;100112;-77
2023/03/20 11:36:00;;;;;;;;;;;;;;;16.17;37.60;97092.54;108740;1253;98917;-77
2023/03/20 11:38:30;;;;;;;;;;;;;;;15.96;37.95;97088.15;108589;1254;95606;-78
2023/03/20 11:40:58;;;;;;;;;;;;;;;15.69;38.38;97089.96;108816;1253;96056;-78
2023/03/20 11:43:27;;;;;;;;;;;;;;;15.46;38.85;97087.13;108811;1253;103456;-78
2023/03/20 11:45:57;;;;;;;;;;;;;;;15.38;39.34;97087.05;108787;1253;100391;-78
2023/03/20 11:48:26;;;;;;;;;;;;;;;15.35;39.68;97081.88;108785;1253;99915;-78
2023/03/20 11:51:04;;;;;;;;;;;;;;;15.32;39.92;97081.98;108812;1253;95706;-77
2023/03/20 11:53:35;;;;;;;;;;;;;;;15.25;39.98;97080.55;108931;1251;96319;-77
2023/03/20 11:56:12;;;;;;;;;;;;;;;15.20;40.27;97081.95;108634;1256;103510;-77
2023/03/20 11:58:49;;;;;;;;;;;;;;;15.10;40.52;97077.77;108927;1251;101353;-77
2023/03/20 12:01:17;;;;;;;;;;;;;;;15.12;40.94;97076.20;108844;1251;99352;-77
2023/03/20 12:03:53;;;;;;;;;;;;;;;15.18;40.73;97078.82;108865;1251;95637;-78
2023/03/20 12:06:23;;;;;;;;;;;;;;;15.12;40.77;97075.38;108935;1251;95855;-77
2023/03/20 12:08:54;;;;;;;;;;;;;;;15.15;40.96;97074.68;108776;1250;103486;-78
2023/03/20 12:11:38;;;;;;;;;;;;;;;15.19;40.99;97074.38;108940;1251;100398;-77
2023/03/20 12:14:08;;;;;;;;;;;;;;;15.15;41.08;97073.96;108915;1251;99879;-77
2023/03/20 12:16:36;;;;;;;;;;;;;;;15.20;41.07;97075.73;108897;1253;95598;-77
2023/03/20 12:19:09;;;;;;;;;;;;;;;15.15;41.27;97074.79;108932;1251;95730;-77
2023/03/20 12:22:00;;;;;;;;;;;;;;;15.10;41.37;97075.84;108719;1250;103511;-77
2023/03/20 12:24:51;;;;;;;;;;;;;;;15.13;41.58;97072.37;108921;1250;101375;-77
2023/03/20 12:27:30;;;;;;;;;;;;;;;15.22;41.50;97070.86;108837;1251;99928;-78
2023/03/20 12:30:07;;;;;;;;;;;;;;;15.27;41.75;97075.08;108917;1251;95563;-78
2023/03/20 12:32:40;;;;;;;;;;;;;;;15.24;42.00;97073.56;108885;1251;95663;-78
2023/03/20 12:35:22;;;;;;;;;;;;;;;15.21;42.16;97073.32;108939;1251;103986;-77
2023/03/20 12:37:50;;;;;;;;;;;;;;;15.19;42.39;97071.06;108693;1254;101402;-77
2023/03/20 12:40:20;;;;;;;;;;;;;;;15.20;42.56;97071.08;108886;1251;98634;-78
2023/03/20 12:42:50;;;;;;;;;;;;;;;15.18;42.96;97075.02;108898;1251;95573;-77
2023/03/20 12:45:22;;;;;;;;;;;;;;;15.13;43.11;97071.44;108908;1251;95568;-77
2023/03/20 12:47:59;;;;;;;;;;;;;;;15.12;43.30;97071.14;108948;1250;103238;-77
2023/03/20 12:50:27;;;;;;;;;;;;;;;15.04;43.52;97067.10;108918;1250;101138;-77
2023/03/20 12:53:04;;;;;;;;;;;;;;;15.02;43.54;97063.01;108899;1251;99935;-77
2023/03/20 12:55:57;;;;;;;;;;;;;;;15.05;43.60;97063.94;108918;1251;95520;-77